sensor_id;sensor_type;location;lat;lon;timestamp;temperature;humidity
72277;SHT30;61204;49.980;8.358;2024-01-15T00:00:43;-2.12;89.62
72277;SHT30;61204;49.980;8.358;2024-01-15T00:03:09;-2.10;90.05
72277;SHT30;61204;49.980;8.358;2024-01-15T00:05:36;-2.12;89.77
72277;SHT30;61204;49.980;8.358;2024-01-15T00:08:01;-2.16;89.39
72277;SHT30;61204;49.980;8.358;2024-01-15T00:10:27;-2.21;89.63
72277;SHT30;61204;49.980;8.358;2024-01-15T00:12:52;-2.16;90.01
72277;SHT30;61204;49.980;8.358;2024-01-15T00:15:22;-2.09;89.72
72277;SHT30;61204;49.980;8.358;2024-01-15T00:17:50;-2.03;89.43
72277;SHT30;61204;49.980;8.358;2024-01-15T00:20:16;-2.05;88.84
72277;SHT30;61204;49.980;8.358;2024-01-15T00:22:41;-1.96;88.81
72277;SHT30;61204;49.980;8.358;2024-01-15T00:25:09;-1.99;88.97
72277;SHT30;61204;49.980;8.358;2024-01-15T00:27:37;-1.95;88.31
72277;SHT30;61204;49.980;8.358;2024-01-15T00:30:02;-2.02;88.71
72277;SHT30;61204;49.980;8.358;2024-01-15T00:32:29;-2.03;87.92
72277;SHT30;61204;49.980;8.358;2024-01-15T00:34:55;-2.03;88.55
72277;SHT30;61204;49.980;8.358;2024-01-15T00:37:22;-2.01;88.46
72277;SHT30;61204;49.980;8.358;2024-01-15T00:39:50;-1.94;87.86
72277;SHT30;61204;49.980;8.358;2024-01-15T00:42:15;-2.06;88.20
72277;SHT30;61204;49.980;8.358;2024-01-15T00:44:42;-2.05;88.62
72277;SHT30;61204;49.980;8.358;2024-01-15T00:47:07;-2.07;88.52
72277;SHT30;61204;49.980;8.358;2024-01-15T00:49:36;-2.07;88.60
72277;SHT30;61204;49.980;8.358;2024-01-15T00:52:01;-1.95;87.83
72277;SHT30;61204;49.980;8.358;2024-01-15T00:54:27;-1.95;87.61
72277;SHT30;61204;49.980;8.358;2024-01-15T00:56:52;-1.94;86.90
72277;SHT30;61204;49.980;8.358;2024-01-15T00:59:18;-1.92;86.40
72277;SHT30;61204;49.980;8.358;2024-01-15T01:01:46;-1.84;85.77
72277;SHT30;61204;49.980;8.358;2024-01-15T01:04:12;-1.87;85.89
72277;SHT30;61204;49.980;8.358;2024-01-15T01:06:38;-1.87;85.78
72277;SHT30;61204;49.980;8.358;2024-01-15T01:09:04;-1.94;85.87
72277;SHT30;61204;49.980;8.358;2024-01-15T01:11:30;-1.95;85.54
72277;SHT30;61204;49.980;8.358;2024-01-15T01:13:55;-1.94;86.01
72277;SHT30;61204;49.980;8.358;2024-01-15T01:16:22;-1.91;86.15
72277;SHT30;61204;49.980;8.358;2024-01-15T01:18:47;-1.89;86.20
72277;SHT30;61204;49.980;8.358;2024-01-15T01:21:13;-1.92;86.28
72277;SHT30;61204;49.980;8.358;2024-01-15T01:23:40;-1.84;86.01
72277;SHT30;61204;49.980;8.358;2024-01-15T01:26:05;-1.94;86.00
72277;SHT30;61204;49.980;8.358;2024-01-15T01:28:31;-1.84;85.88
72277;SHT30;61204;49.980;8.358;2024-01-15T01:30:57;-1.85;85.81
72277;SHT30;61204;49.980;8.358;2024-01-15T01:33:22;-1.79;85.53
72277;SHT30;61204;49.980;8.358;2024-01-15T01:35:48;-1.82;85.31
72277;SHT30;61204;49.980;8.358;2024-01-15T01:38:14;-1.68;85.07
72277;SHT30;61204;49.980;8.358;2024-01-15T01:40:39;-1.71;85.63
72277;SHT30;61204;49.980;8.358;2024-01-15T01:43:05;-1.70;86.19
72277;SHT30;61204;49.980;8.358;2024-01-15T01:45:31;-1.71;85.66
72277;SHT30;61204;49.980;8.358;2024-01-15T01:47:56;-1.72;85.65
72277;SHT30;61204;49.980;8.358;2024-01-15T01:50:22;-1.56;84.98
72277;SHT30;61204;49.980;8.358;2024-01-15T01:52:49;-1.59;85.32
72277;SHT30;61204;49.980;8.358;2024-01-15T01:55:18;-1.64;85.46
72277;SHT30;61204;49.980;8.358;2024-01-15T01:57:46;-1.54;84.81
72277;SHT30;61204;49.980;8.358;2024-01-15T02:00:12;-1.63;84.91
72277;SHT30;61204;49.980;8.358;2024-01-15T02:02:38;-1.44;84.06
72277;SHT30;61204;49.980;8.358;2024-01-15T02:05:05;-1.54;85.42
72277;SHT30;61204;49.980;8.358;2024-01-15T02:07:34;-1.57;85.09
72277;SHT30;61204;49.980;8.358;2024-01-15T02:10:04;-1.67;85.81
72277;SHT30;61204;49.980;8.358;2024-01-15T02:12:31;-1.63;85.79
72277;SHT30;61204;49.980;8.358;2024-01-15T02:14:57;-1.66;85.88
72277;SHT30;61204;49.980;8.358;2024-01-15T02:17:23;-1.66;86.22
72277;SHT30;61204;49.980;8.358;2024-01-15T02:19:49;-1.68;85.91
72277;SHT30;61204;49.980;8.358;2024-01-15T02:22:15;-1.64;85.51
72277;SHT30;61204;49.980;8.358;2024-01-15T02:24:41;-1.64;85.67
72277;SHT30;61204;49.980;8.358;2024-01-15T02:27:07;-1.67;85.50
72277;SHT30;61204;49.980;8.358;2024-01-15T02:29:35;-1.59;85.72
72277;SHT30;61204;49.980;8.358;2024-01-15T02:32:08;-1.63;85.43
72277;SHT30;61204;49.980;8.358;2024-01-15T02:34:34;-1.57;85.46
72277;SHT30;61204;49.980;8.358;2024-01-15T02:37:00;-1.49;85.88
72277;SHT30;61204;49.980;8.358;2024-01-15T02:39:28;-1.51;85.88
72277;SHT30;61204;49.980;8.358;2024-01-15T02:41:54;-1.50;85.49
72277;SHT30;61204;49.980;8.358;2024-01-15T02:44:21;-1.44;85.42
72277;SHT30;61204;49.980;8.358;2024-01-15T02:46:47;-1.46;85.07
72277;SHT30;61204;49.980;8.358;2024-01-15T02:49:14;-1.50;85.40
72277;SHT30;61204;49.980;8.358;2024-01-15T02:51:41;-1.39;85.13
72277;SHT30;61204;49.980;8.358;2024-01-15T02:54:09;-1.35;84.81
72277;SHT30;61204;49.980;8.358;2024-01-15T02:56:36;-1.33;84.57
72277;SHT30;61204;49.980;8.358;2024-01-15T02:59:04;-1.28;84.60
72277;SHT30;61204;49.980;8.358;2024-01-15T03:01:29;-1.23;84.57
72277;SHT30;61204;49.980;8.358;2024-01-15T03:03:58;-1.23;85.05
72277;SHT30;61204;49.980;8.358;2024-01-15T03:06:23;-1.38;85.08
72277;SHT30;61204;49.980;8.358;2024-01-15T03:08:51;-1.36;85.15
72277;SHT30;61204;49.980;8.358;2024-01-15T03:11:16;-1.28;84.53
72277;SHT30;61204;49.980;8.358;2024-01-15T03:13:42;-1.22;84.79
72277;SHT30;61204;49.980;8.358;2024-01-15T03:16:07;-1.22;84.37
72277;SHT30;61204;49.980;8.358;2024-01-15T03:18:33;-1.22;84.21
72277;SHT30;61204;49.980;8.358;2024-01-15T03:20:59;-1.22;84.67
72277;SHT30;61204;49.980;8.358;2024-01-15T03:23:26;-1.17;84.51
72277;SHT30;61204;49.980;8.358;2024-01-15T03:25:52;-1.20;84.54
72277;SHT30;61204;49.980;8.358;2024-01-15T03:28:17;-1.20;84.99
72277;SHT30;61204;49.980;8.358;2024-01-15T03:30:43;-1.17;84.91
72277;SHT30;61204;49.980;8.358;2024-01-15T03:33:08;-1.25;85.02
72277;SHT30;61204;49.980;8.358;2024-01-15T03:35:34;-1.32;85.40
72277;SHT30;61204;49.980;8.358;2024-01-15T03:38:00;-1.20;84.68
72277;SHT30;61204;49.980;8.358;2024-01-15T03:40:27;-1.26;85.38
72277;SHT30;61204;49.980;8.358;2024-01-15T03:42:53;-1.28;85.13
72277;SHT30;61204;49.980;8.358;2024-01-15T03:45:19;-1.20;85.07
72277;SHT30;61204;49.980;8.358;2024-01-15T03:47:45;-1.11;84.26
72277;SHT30;61204;49.980;8.358;2024-01-15T03:50:10;-1.19;84.73
72277;SHT30;61204;49.980;8.358;2024-01-15T03:52:36;-1.11;84.53
72277;SHT30;61204;49.980;8.358;2024-01-15T03:55:02;-1.04;84.40
72277;SHT30;61204;49.980;8.358;2024-01-15T03:57:28;-1.06;84.40
72277;SHT30;61204;49.980;8.358;2024-01-15T03:59:54;-1.08;84.58
72277;SHT30;61204;49.980;8.358;2024-01-15T04:02:19;-1.09;84.42
72277;SHT30;61204;49.980;8.358;2024-01-15T04:04:45;-1.13;84.94
72277;SHT30;61204;49.980;8.358;2024-01-15T04:07:10;-1.08;84.68
72277;SHT30;61204;49.980;8.358;2024-01-15T04:09:36;-1.02;84.50
72277;SHT30;61204;49.980;8.358;2024-01-15T04:12:01;-1.05;84.42
72277;SHT30;61204;49.980;8.358;2024-01-15T04:14:27;-0.99;84.43
72277;SHT30;61204;49.980;8.358;2024-01-15T04:16:55;-1.06;85.06
72277;SHT30;61204;49.980;8.358;2024-01-15T04:19:21;-0.95;84.67
72277;SHT30;61204;49.980;8.358;2024-01-15T04:21:46;-1.02;85.08
72277;SHT30;61204;49.980;8.358;2024-01-15T04:24:12;-1.01;84.51
72277;SHT30;61204;49.980;8.358;2024-01-15T04:26:37;-1.01;84.79
72277;SHT30;61204;49.980;8.358;2024-01-15T04:29:03;-1.12;85.25
72277;SHT30;61204;49.980;8.358;2024-01-15T04:31:30;-1.09;85.10
72277;SHT30;61204;49.980;8.358;2024-01-15T04:33:56;-1.02;84.59
72277;SHT30;61204;49.980;8.358;2024-01-15T04:36:22;-1.02;84.53
72277;SHT30;61204;49.980;8.358;2024-01-15T04:38:47;-0.97;84.42
72277;SHT30;61204;49.980;8.358;2024-01-15T04:41:14;-0.92;84.20
72277;SHT30;61204;49.980;8.358;2024-01-15T04:43:41;-0.94;83.93
72277;SHT30;61204;49.980;8.358;2024-01-15T04:46:07;-0.92;84.70
72277;SHT30;61204;49.980;8.358;2024-01-15T04:48:33;-0.97;85.34
72277;SHT30;61204;49.980;8.358;2024-01-15T04:51:05;-0.97;85.04
72277;SHT30;61204;49.980;8.358;2024-01-15T04:53:31;-0.95;84.95
72277;SHT30;61204;49.980;8.358;2024-01-15T04:55:56;-0.95;85.02
72277;SHT30;61204;49.980;8.358;2024-01-15T04:58:22;-0.89;85.12
72277;SHT30;61204;49.980;8.358;2024-01-15T05:00:51;-0.89;84.90
72277;SHT30;61204;49.980;8.358;2024-01-15T05:03:19;-0.94;84.97
72277;SHT30;61204;49.980;8.358;2024-01-15T05:05:45;-0.88;84.36
72277;SHT30;61204;49.980;8.358;2024-01-15T05:08:11;-0.88;84.56
72277;SHT30;61204;49.980;8.358;2024-01-15T05:10:37;-0.85;84.49
72277;SHT30;61204;49.980;8.358;2024-01-15T05:13:02;-0.89;85.16
72277;SHT30;61204;49.980;8.358;2024-01-15T05:15:28;-0.84;84.68
72277;SHT30;61204;49.980;8.358;2024-01-15T05:17:55;-0.85;84.88
72277;SHT30;61204;49.980;8.358;2024-01-15T05:20:22;-0.91;85.40
72277;SHT30;61204;49.980;8.358;2024-01-15T05:22:48;-0.91;85.38
72277;SHT30;61204;49.980;8.358;2024-01-15T05:25:13;-0.88;85.67
72277;SHT30;61204;49.980;8.358;2024-01-15T05:27:41;-0.95;86.44
72277;SHT30;61204;49.980;8.358;2024-01-15T05:30:07;-0.88;87.23
72277;SHT30;61204;49.980;8.358;2024-01-15T05:32:33;-1.01;89.01
72277;SHT30;61204;49.980;8.358;2024-01-15T05:34:59;-1.12;90.24
72277;SHT30;61204;49.980;8.358;2024-01-15T05:37:25;-1.15;90.58
72277;SHT30;61204;49.980;8.358;2024-01-15T05:39:52;-1.26;91.01
72277;SHT30;61204;49.980;8.358;2024-01-15T05:42:18;-1.25;91.57
72277;SHT30;61204;49.980;8.358;2024-01-15T05:44:43;-1.20;90.11
72277;SHT30;61204;49.980;8.358;2024-01-15T05:47:09;-1.17;89.30
72277;SHT30;61204;49.980;8.358;2024-01-15T05:49:35;-1.15;89.72
72277;SHT30;61204;49.980;8.358;2024-01-15T05:52:03;-1.06;89.84
72277;SHT30;61204;49.980;8.358;2024-01-15T05:54:29;-1.01;88.30
72277;SHT30;61204;49.980;8.358;2024-01-15T05:56:55;-1.08;89.14
72277;SHT30;61204;49.980;8.358;2024-01-15T05:59:20;-1.13;88.49
72277;SHT30;61204;49.980;8.358;2024-01-15T06:01:46;-1.05;88.16
72277;SHT30;61204;49.980;8.358;2024-01-15T06:04:11;-1.09;87.82
72277;SHT30;61204;49.980;8.358;2024-01-15T06:06:37;-0.98;87.10
72277;SHT30;61204;49.980;8.358;2024-01-15T06:09:02;-0.94;86.37
72277;SHT30;61204;49.980;8.358;2024-01-15T06:11:32;-0.92;86.09
72277;SHT30;61204;49.980;8.358;2024-01-15T06:13:58;-0.85;85.75
72277;SHT30;61204;49.980;8.358;2024-01-15T06:16:24;-0.87;86.14
72277;SHT30;61204;49.980;8.358;2024-01-15T06:18:50;-0.95;86.36
72277;SHT30;61204;49.980;8.358;2024-01-15T06:21:16;-0.94;86.64
72277;SHT30;61204;49.980;8.358;2024-01-15T06:23:42;-0.87;86.33
72277;SHT30;61204;49.980;8.358;2024-01-15T06:26:07;-0.88;85.87
72277;SHT30;61204;49.980;8.358;2024-01-15T06:28:33;-0.87;86.32
72277;SHT30;61204;49.980;8.358;2024-01-15T06:30:59;-0.97;87.58
72277;SHT30;61204;49.980;8.358;2024-01-15T06:33:24;-0.92;87.95
72277;SHT30;61204;49.980;8.358;2024-01-15T06:35:50;-0.92;88.49
72277;SHT30;61204;49.980;8.358;2024-01-15T06:38:16;-0.99;88.64
72277;SHT30;61204;49.980;8.358;2024-01-15T06:40:42;-0.97;88.16
72277;SHT30;61204;49.980;8.358;2024-01-15T06:43:12;-0.95;88.39
72277;SHT30;61204;49.980;8.358;2024-01-15T06:45:38;-0.99;88.26
72277;SHT30;61204;49.980;8.358;2024-01-15T06:48:04;-0.91;88.63
72277;SHT30;61204;49.980;8.358;2024-01-15T06:50:30;-0.85;88.11
72277;SHT30;61204;49.980;8.358;2024-01-15T06:52:55;-0.87;88.28
72277;SHT30;61204;49.980;8.358;2024-01-15T06:55:21;-0.83;88.38
72277;SHT30;61204;49.980;8.358;2024-01-15T06:57:46;-0.84;88.20
72277;SHT30;61204;49.980;8.358;2024-01-15T07:00:13;-0.83;87.70
72277;SHT30;61204;49.980;8.358;2024-01-15T07:02:39;-0.84;87.97
72277;SHT30;61204;49.980;8.358;2024-01-15T07:05:04;-0.80;87.91
72277;SHT30;61204;49.980;8.358;2024-01-15T07:07:31;-0.83;87.88
72277;SHT30;61204;49.980;8.358;2024-01-15T07:09:56;-0.83;87.77
72277;SHT30;61204;49.980;8.358;2024-01-15T07:12:22;-0.76;87.47
72277;SHT30;61204;49.980;8.358;2024-01-15T07:14:49;-0.74;87.13
72277;SHT30;61204;49.980;8.358;2024-01-15T07:17:15;-0.73;87.33
72277;SHT30;61204;49.980;8.358;2024-01-15T07:19:41;-0.68;87.17
72277;SHT30;61204;49.980;8.358;2024-01-15T07:22:09;-0.63;86.57
72277;SHT30;61204;49.980;8.358;2024-01-15T07:24:35;-0.71;86.95
72277;SHT30;61204;49.980;8.358;2024-01-15T07:27:00;-0.70;87.11
72277;SHT30;61204;49.980;8.358;2024-01-15T07:29:26;-0.61;86.56
72277;SHT30;61204;49.980;8.358;2024-01-15T07:31:52;-0.54;86.38
72277;SHT30;61204;49.980;8.358;2024-01-15T07:34:18;-0.46;85.72
72277;SHT30;61204;49.980;8.358;2024-01-15T07:36:44;-0.44;85.76
72277;SHT30;61204;49.980;8.358;2024-01-15T07:39:10;-0.50;86.28
72277;SHT30;61204;49.980;8.358;2024-01-15T07:41:36;-0.40;85.71
72277;SHT30;61204;49.980;8.358;2024-01-15T07:44:02;-0.46;85.82
72277;SHT30;61204;49.980;8.358;2024-01-15T07:46:28;-0.39;85.57
72277;SHT30;61204;49.980;8.358;2024-01-15T07:48:57;-0.52;85.92
72277;SHT30;61204;49.980;8.358;2024-01-15T07:51:24;-0.46;85.84
72277;SHT30;61204;49.980;8.358;2024-01-15T07:53:52;-0.46;86.28
72277;SHT30;61204;49.980;8.358;2024-01-15T07:56:18;-0.34;85.78
72277;SHT30;61204;49.980;8.358;2024-01-15T07:58:44;-0.30;85.44
72277;SHT30;61204;49.980;8.358;2024-01-15T08:01:10;-0.43;86.02
72277;SHT30;61204;49.980;8.358;2024-01-15T08:03:35;-0.44;86.44
72277;SHT30;61204;49.980;8.358;2024-01-15T08:06:05;-0.34;86.25
72277;SHT30;61204;49.980;8.358;2024-01-15T08:08:31;-0.32;86.35
72277;SHT30;61204;49.980;8.358;2024-01-15T08:10:57;-0.26;86.42
72277;SHT30;61204;49.980;8.358;2024-01-15T08:13:22;-0.22;86.73
72277;SHT30;61204;49.980;8.358;2024-01-15T08:15:48;-0.09;85.95
72277;SHT30;61204;49.980;8.358;2024-01-15T08:18:13;-0.15;85.67
72277;SHT30;61204;49.980;8.358;2024-01-15T08:20:39;-0.08;86.13
72277;SHT30;61204;49.980;8.358;2024-01-15T08:23:05;0.02;85.88
72277;SHT30;61204;49.980;8.358;2024-01-15T08:25:30;-0.19;85.95
72277;SHT30;61204;49.980;8.358;2024-01-15T08:27:57;-0.12;85.56
72277;SHT30;61204;49.980;8.358;2024-01-15T08:30:23;-0.14;85.95
72277;SHT30;61204;49.980;8.358;2024-01-15T08:32:57;-0.12;85.82
72277;SHT30;61204;49.980;8.358;2024-01-15T08:35:22;0.03;85.86
72277;SHT30;61204;49.980;8.358;2024-01-15T08:37:54;0.06;85.45
72277;SHT30;61204;49.980;8.358;2024-01-15T08:40:20;0.10;85.50
72277;SHT30;61204;49.980;8.358;2024-01-15T08:42:46;0.24;84.51
72277;SHT30;61204;49.980;8.358;2024-01-15T08:45:15;0.24;84.29
72277;SHT30;61204;49.980;8.358;2024-01-15T08:47:43;0.19;84.51
72277;SHT30;61204;49.980;8.358;2024-01-15T08:50:08;0.26;83.95
72277;SHT30;61204;49.980;8.358;2024-01-15T08:52:36;0.20;84.30
72277;SHT30;61204;49.980;8.358;2024-01-15T08:55:03;0.40;82.55
72277;SHT30;61204;49.980;8.358;2024-01-15T08:57:30;0.22;84.40
72277;SHT30;61204;49.980;8.358;2024-01-15T08:59:56;0.05;84.97
72277;SHT30;61204;49.980;8.358;2024-01-15T09:02:21;0.07;84.56
72277;SHT30;61204;49.980;8.358;2024-01-15T09:04:49;0.14;84.91
72277;SHT30;61204;49.980;8.358;2024-01-15T09:07:15;0.19;84.42
72277;SHT30;61204;49.980;8.358;2024-01-15T09:09:40;0.13;85.09
72277;SHT30;61204;49.980;8.358;2024-01-15T09:12:07;0.13;83.94
72277;SHT30;61204;49.980;8.358;2024-01-15T09:14:35;0.07;83.78
72277;SHT30;61204;49.980;8.358;2024-01-15T09:17:01;0.16;83.75
72277;SHT30;61204;49.980;8.358;2024-01-15T09:19:29;0.07;84.19
72277;SHT30;61204;49.980;8.358;2024-01-15T09:21:55;0.16;83.98
72277;SHT30;61204;49.980;8.358;2024-01-15T09:24:21;0.23;84.36
72277;SHT30;61204;49.980;8.358;2024-01-15T09:26:46;0.40;83.19
72277;SHT30;61204;49.980;8.358;2024-01-15T09:29:12;0.50;82.35
72277;SHT30;61204;49.980;8.358;2024-01-15T09:31:39;0.30;83.07
72277;SHT30;61204;49.980;8.358;2024-01-15T09:34:07;0.26;83.56
72277;SHT30;61204;49.980;8.358;2024-01-15T09:36:41;0.37;83.27
72277;SHT30;61204;49.980;8.358;2024-01-15T09:39:09;0.26;83.54
72277;SHT30;61204;49.980;8.358;2024-01-15T09:41:37;0.26;83.62
72277;SHT30;61204;49.980;8.358;2024-01-15T09:44:06;0.22;83.36
72277;SHT30;61204;49.980;8.358;2024-01-15T09:46:35;0.27;83.57
72277;SHT30;61204;49.980;8.358;2024-01-15T09:49:00;0.24;83.21
72277;SHT30;61204;49.980;8.358;2024-01-15T09:51:32;0.29;83.77
72277;SHT30;61204;49.980;8.358;2024-01-15T09:53:58;0.41;83.61
72277;SHT30;61204;49.980;8.358;2024-01-15T09:56:24;0.34;83.96
72277;SHT30;61204;49.980;8.358;2024-01-15T09:58:50;0.53;83.92
72277;SHT30;61204;49.980;8.358;2024-01-15T10:01:22;0.60;83.78
72277;SHT30;61204;49.980;8.358;2024-01-15T10:03:49;0.61;83.10
72277;SHT30;61204;49.980;8.358;2024-01-15T10:06:17;0.67;83.48
72277;SHT30;61204;49.980;8.358;2024-01-15T10:08:49;0.72;83.18
72277;SHT30;61204;49.980;8.358;2024-01-15T10:11:16;0.51;83.58
72277;SHT30;61204;49.980;8.358;2024-01-15T10:13:46;0.53;83.20
72277;SHT30;61204;49.980;8.358;2024-01-15T10:16:17;0.57;83.37
72277;SHT30;61204;49.980;8.358;2024-01-15T10:18:42;0.71;83.64
72277;SHT30;61204;49.980;8.358;2024-01-15T10:21:08;1.02;81.85
72277;SHT30;61204;49.980;8.358;2024-01-15T10:23:34;1.10;81.70
72277;SHT30;61204;49.980;8.358;2024-01-15T10:26:00;1.06;81.66
72277;SHT30;61204;49.980;8.358;2024-01-15T10:28:27;0.97;81.90
72277;SHT30;61204;49.980;8.358;2024-01-15T10:30:56;0.84;82.46
72277;SHT30;61204;49.980;8.358;2024-01-15T10:33:25;0.86;82.22
72277;SHT30;61204;49.980;8.358;2024-01-15T10:35:55;0.89;82.51
72277;SHT30;61204;49.980;8.358;2024-01-15T10:38:24;0.92;82.24
72277;SHT30;61204;49.980;8.358;2024-01-15T10:40:55;0.95;82.56
72277;SHT30;61204;49.980;8.358;2024-01-15T10:43:22;0.93;82.63
72277;SHT30;61204;49.980;8.358;2024-01-15T10:45:51;0.88;82.92
72277;SHT30;61204;49.980;8.358;2024-01-15T10:48:18;0.88;83.05
72277;SHT30;61204;49.980;8.358;2024-01-15T10:50:46;0.85;83.21
72277;SHT30;61204;49.980;8.358;2024-01-15T10:53:16;0.82;83.38
72277;SHT30;61204;49.980;8.358;2024-01-15T10:55:43;0.92;83.05
72277;SHT30;61204;49.980;8.358;2024-01-15T10:58:09;1.10;82.76
72277;SHT30;61204;49.980;8.358;2024-01-15T11:00:36;1.23;82.50
72277;SHT30;61204;49.980;8.358;2024-01-15T11:03:05;1.43;81.39
72277;SHT30;61204;49.980;8.358;2024-01-15T11:05:44;1.62;81.19
72277;SHT30;61204;49.980;8.358;2024-01-15T11:08:10;1.47;81.15
72277;SHT30;61204;49.980;8.358;2024-01-15T11:10:51;1.51;80.95
72277;SHT30;61204;49.980;8.358;2024-01-15T11:16:07;1.34;81.21
72277;SHT30;61204;49.980;8.358;2024-01-15T11:18:39;1.36;81.31
72277;SHT30;61204;49.980;8.358;2024-01-15T11:23:57;1.33;81.32
72277;SHT30;61204;49.980;8.358;2024-01-15T11:26:46;1.59;81.83
72277;SHT30;61204;49.980;8.358;2024-01-15T11:34:58;1.76;80.56
72277;SHT30;61204;49.980;8.358;2024-01-15T11:37:29;1.68;80.58
72277;SHT30;61204;49.980;8.358;2024-01-15T11:40:23;1.68;80.36
72277;SHT30;61204;49.980;8.358;2024-01-15T11:43:04;1.65;80.91
72277;SHT30;61204;49.980;8.358;2024-01-15T11:45:31;1.78;80.61
72277;SHT30;61204;49.980;8.358;2024-01-15T11:48:15;1.68;80.49
72277;SHT30;61204;49.980;8.358;2024-01-15T11:50:50;1.82;80.80
72277;SHT30;61204;49.980;8.358;2024-01-15T11:53:39;1.91;80.32
72277;SHT30;61204;49.980;8.358;2024-01-15T11:56:15;2.14;80.24
72277;SHT30;61204;49.980;8.358;2024-01-15T11:58:43;2.10;80.34
72277;SHT30;61204;49.980;8.358;2024-01-15T12:01:11;2.24;79.32
72277;SHT30;61204;49.980;8.358;2024-01-15T12:03:39;2.30;78.82
72277;SHT30;61204;49.980;8.358;2024-01-15T12:06:11;2.37;78.48
72277;SHT30;61204;49.980;8.358;2024-01-15T12:08:37;2.29;77.80
72277;SHT30;61204;49.980;8.358;2024-01-15T12:11:07;2.20;77.96
72277;SHT30;61204;49.980;8.358;2024-01-15T12:13:39;2.24;77.69
72277;SHT30;61204;49.980;8.358;2024-01-15T12:16:04;2.30;77.76
72277;SHT30;61204;49.980;8.358;2024-01-15T12:18:30;2.19;77.86
72277;SHT30;61204;49.980;8.358;2024-01-15T12:20:57;2.19;77.92
72277;SHT30;61204;49.980;8.358;2024-01-15T12:23:24;2.22;77.58
72277;SHT30;61204;49.980;8.358;2024-01-15T12:25:50;2.16;77.74
72277;SHT30;61204;49.980;8.358;2024-01-15T12:28:16;2.23;77.94
72277;SHT30;61204;49.980;8.358;2024-01-15T12:30:41;2.27;77.17
72277;SHT30;61204;49.980;8.358;2024-01-15T12:33:08;2.19;77.55
72277;SHT30;61204;49.980;8.358;2024-01-15T12:35:37;2.19;77.62
72277;SHT30;61204;49.980;8.358;2024-01-15T12:38:03;2.17;77.54
72277;SHT30;61204;49.980;8.358;2024-01-15T12:40:31;2.20;77.45
72277;SHT30;61204;49.980;8.358;2024-01-15T12:42:58;2.23;77.16
72277;SHT30;61204;49.980;8.358;2024-01-15T12:45:24;2.29;76.89
72277;SHT30;61204;49.980;8.358;2024-01-15T12:47:50;2.29;76.94
72277;SHT30;61204;49.980;8.358;2024-01-15T12:50:18;2.36;77.29
72277;SHT30;61204;49.980;8.358;2024-01-15T12:52:46;2.45;76.10
72277;SHT30;61204;49.980;8.358;2024-01-15T12:55:13;2.42;76.26
72277;SHT30;61204;49.980;8.358;2024-01-15T12:57:39;2.55;76.12
72277;SHT30;61204;49.980;8.358;2024-01-15T13:00:06;2.54;75.80
72277;SHT30;61204;49.980;8.358;2024-01-15T13:02:36;2.54;75.03
72277;SHT30;61204;49.980;8.358;2024-01-15T13:05:03;2.54;75.24
72277;SHT30;61204;49.980;8.358;2024-01-15T13:07:31;2.59;75.28
72277;SHT30;61204;49.980;8.358;2024-01-15T13:09:56;2.58;74.98
72277;SHT30;61204;49.980;8.358;2024-01-15T13:12:22;2.57;74.74
72277;SHT30;61204;49.980;8.358;2024-01-15T13:14:47;2.55;74.74
72277;SHT30;61204;49.980;8.358;2024-01-15T13:17:13;2.59;74.95
72277;SHT30;61204;49.980;8.358;2024-01-15T13:19:42;2.58;74.69
72277;SHT30;61204;49.980;8.358;2024-01-15T13:22:08;2.62;75.14
72277;SHT30;61204;49.980;8.358;2024-01-15T13:24:35;2.64;74.54
72277;SHT30;61204;49.980;8.358;2024-01-15T13:27:03;2.71;74.33
72277;SHT30;61204;49.980;8.358;2024-01-15T13:29:30;2.69;73.88
72277;SHT30;61204;49.980;8.358;2024-01-15T13:31:56;2.65;73.97
72277;SHT30;61204;49.980;8.358;2024-01-15T13:34:22;2.71;74.32
72277;SHT30;61204;49.980;8.358;2024-01-15T13:36:48;2.81;74.51
72277;SHT30;61204;49.980;8.358;2024-01-15T13:39:15;2.79;74.07
72277;SHT30;61204;49.980;8.358;2024-01-15T13:41:47;2.81;74.30
72277;SHT30;61204;49.980;8.358;2024-01-15T13:44:13;2.93;74.69
72277;SHT30;61204;49.980;8.358;2024-01-15T13:46:41;2.88;74.58
72277;SHT30;61204;49.980;8.358;2024-01-15T13:49:07;2.84;74.32
72277;SHT30;61204;49.980;8.358;2024-01-15T13:51:35;2.82;74.56
72277;SHT30;61204;49.980;8.358;2024-01-15T13:54:04;2.75;73.96
72277;SHT30;61204;49.980;8.358;2024-01-15T13:56:30;2.78;74.43
72277;SHT30;61204;49.980;8.358;2024-01-15T13:58:58;2.76;74.31
72277;SHT30;61204;49.980;8.358;2024-01-15T14:01:25;2.74;74.44
72277;SHT30;61204;49.980;8.358;2024-01-15T14:03:52;2.68;74.58
72277;SHT30;61204;49.980;8.358;2024-01-15T14:06:18;2.69;74.42
72277;SHT30;61204;49.980;8.358;2024-01-15T14:08:44;2.72;74.61
72277;SHT30;61204;49.980;8.358;2024-01-15T14:11:10;2.74;74.08
72277;SHT30;61204;49.980;8.358;2024-01-15T14:13:37;2.79;74.19
72277;SHT30;61204;49.980;8.358;2024-01-15T14:16:05;2.86;73.54
72277;SHT30;61204;49.980;8.358;2024-01-15T14:18:31;2.84;73.49
72277;SHT30;61204;49.980;8.358;2024-01-15T14:20:57;2.96;73.17
72277;SHT30;61204;49.980;8.358;2024-01-15T14:23:23;2.95;73.19
72277;SHT30;61204;49.980;8.358;2024-01-15T14:25:50;2.92;72.95
72277;SHT30;61204;49.980;8.358;2024-01-15T14:28:16;2.95;72.51
72277;SHT30;61204;49.980;8.358;2024-01-15T14:30:42;2.96;72.65
72277;SHT30;61204;49.980;8.358;2024-01-15T14:33:07;2.91;73.12
72277;SHT30;61204;49.980;8.358;2024-01-15T14:35:35;2.99;73.14
72277;SHT30;61204;49.980;8.358;2024-01-15T14:38:01;2.95;72.78
72277;SHT30;61204;49.980;8.358;2024-01-15T14:40:28;2.95;72.28
72277;SHT30;61204;49.980;8.358;2024-01-15T14:42:55;2.93;72.56
72277;SHT30;61204;49.980;8.358;2024-01-15T14:45:23;2.89;72.68
72277;SHT30;61204;49.980;8.358;2024-01-15T14:47:52;2.85;72.87
72277;SHT30;61204;49.980;8.358;2024-01-15T14:50:18;2.88;72.83
72277;SHT30;61204;49.980;8.358;2024-01-15T14:52:43;2.93;72.64
72277;SHT30;61204;49.980;8.358;2024-01-15T14:55:12;2.91;72.03
72277;SHT30;61204;49.980;8.358;2024-01-15T14:57:37;2.88;71.93
72277;SHT30;61204;49.980;8.358;2024-01-15T15:00:06;2.84;71.68
72277;SHT30;61204;49.980;8.358;2024-01-15T15:02:34;2.78;72.35
72277;SHT30;61204;49.980;8.358;2024-01-15T15:05:09;2.78;71.77
72277;SHT30;61204;49.980;8.358;2024-01-15T15:07:36;2.85;71.44
72277;SHT30;61204;49.980;8.358;2024-01-15T15:10:02;2.88;71.33
72277;SHT30;61204;49.980;8.358;2024-01-15T15:12:31;2.95;71.17
72277;SHT30;61204;49.980;8.358;2024-01-15T15:14:58;3.07;70.79
72277;SHT30;61204;49.980;8.358;2024-01-15T15:17:29;3.00;70.98
72277;SHT30;61204;49.980;8.358;2024-01-15T15:19:54;2.88;71.18
72277;SHT30;61204;49.980;8.358;2024-01-15T15:22:22;2.88;70.82
72277;SHT30;61204;49.980;8.358;2024-01-15T15:24:48;2.85;71.16
72277;SHT30;61204;49.980;8.358;2024-01-15T15:27:13;2.81;71.11
72277;SHT30;61204;49.980;8.358;2024-01-15T15:29:39;2.78;71.41
72277;SHT30;61204;49.980;8.358;2024-01-15T15:32:04;2.71;71.24
72277;SHT30;61204;49.980;8.358;2024-01-15T15:34:30;2.62;71.64
72277;SHT30;61204;49.980;8.358;2024-01-15T15:36:55;2.51;72.41
72277;SHT30;61204;49.980;8.358;2024-01-15T15:39:21;2.44;72.29
72277;SHT30;61204;49.980;8.358;2024-01-15T15:41:47;2.37;72.37
72277;SHT30;61204;49.980;8.358;2024-01-15T15:44:14;2.31;72.46
72277;SHT30;61204;49.980;8.358;2024-01-15T15:46:42;2.22;72.78